sensor_id;sensor_type;location;lat;lon;timestamp;P1;durP1;ratioP1;P2;durP2;ratioP2
25125;SDS011;13106;50.808;5.670;2024-02-21T00:00:02;27.20;;;11.25;;
25125;SDS011;13106;50.808;5.670;2024-02-21T00:02:28;28.45;;;11.38;;
25125;SDS011;13106;50.808;5.670;2024-02-21T00:04:54;25.85;;;10.95;;
25125;SDS011;13106;50.808;5.670;2024-02-21T00:07:20;29.08;;;11.35;;
25125;SDS011;13106;50.808;5.670;2024-02-21T00:09:46;28.45;;;11.32;;
25125;SDS011;13106;50.808;5.670;2024-02-21T00:12:12;30.55;;;11.98;;
25125;SDS011;13106;50.808;5.670;2024-02-21T00:14:39;24.35;;;10.88;;
25125;SDS011;13106;50.808;5.670;2024-02-21T00:17:05;24.42;;;11.20;;
25125;SDS011;13106;50.808;5.670;2024-02-21T00:19:33;26.98;;;11.35;;
25125;SDS011;13106;50.808;5.670;2024-02-21T00:22:00;27.23;;;11.68;;
25125;SDS011;13106;50.808;5.670;2024-02-21T00:24:26;27.43;;;11.27;;
25125;SDS011;13106;50.808;5.670;2024-02-21T00:26:53;26.73;;;11.25;;
25125;SDS011;13106;50.808;5.670;2024-02-21T00:29:19;27.50;;;10.73;;
25125;SDS011;13106;50.808;5.670;2024-02-21T00:31:45;26.35;;;10.80;;
25125;SDS011;13106;50.808;5.670;2024-02-21T00:34:11;28.15;;;11.20;;
25125;SDS011;13106;50.808;5.670;2024-02-21T00:36:38;27.53;;;11.73;;
25125;SDS011;13106;50.808;5.670;2024-02-21T00:39:04;27.90;;;11.70;;
25125;SDS011;13106;50.808;5.670;2024-02-21T00:41:31;21.67;;;11.05;;
25125;SDS011;13106;50.808;5.670;2024-02-21T00:43:57;23.65;;;11.38;;
25125;SDS011;13106;50.808;5.670;2024-02-21T00:46:23;30.73;;;11.48;;
25125;SDS011;13106;50.808;5.670;2024-02-21T00:48:49;25.15;;;11.18;;
25125;SDS011;13106;50.808;5.670;2024-02-21T00:51:15;21.88;;;10.73;;
25125;SDS011;13106;50.808;5.670;2024-02-21T00:53:42;24.70;;;10.98;;
25125;SDS011;13106;50.808;5.670;2024-02-21T00:56:08;29.08;;;11.48;;
25125;SDS011;13106;50.808;5.670;2024-02-21T00:58:34;25.00;;;11.48;;
25125;SDS011;13106;50.808;5.670;2024-02-21T01:01:00;26.58;;;11.57;;
25125;SDS011;13106;50.808;5.670;2024-02-21T01:03:26;25.27;;;10.52;;
25125;SDS011;13106;50.808;5.670;2024-02-21T01:05:52;25.08;;;11.13;;
25125;SDS011;13106;50.808;5.670;2024-02-21T01:08:18;26.23;;;10.80;;
25125;SDS011;13106;50.808;5.670;2024-02-21T01:10:44;25.88;;;10.95;;
25125;SDS011;13106;50.808;5.670;2024-02-21T01:13:10;24.13;;;10.90;;
25125;SDS011;13106;50.808;5.670;2024-02-21T01:15:36;25.55;;;11.32;;
25125;SDS011;13106;50.808;5.670;2024-02-21T01:18:02;27.15;;;11.43;;
25125;SDS011;13106;50.808;5.670;2024-02-21T01:20:30;27.33;;;11.70;;
25125;SDS011;13106;50.808;5.670;2024-02-21T01:22:56;26.63;;;10.63;;
25125;SDS011;13106;50.808;5.670;2024-02-21T01:25:22;26.23;;;11.37;;
25125;SDS011;13106;50.808;5.670;2024-02-21T01:27:48;22.70;;;10.80;;
25125;SDS011;13106;50.808;5.670;2024-02-21T01:30:14;26.33;;;11.75;;
25125;SDS011;13106;50.808;5.670;2024-02-21T01:32:40;25.90;;;10.70;;
25125;SDS011;13106;50.808;5.670;2024-02-21T01:35:07;24.63;;;10.40;;
25125;SDS011;13106;50.808;5.670;2024-02-21T01:37:33;24.98;;;10.82;;
25125;SDS011;13106;50.808;5.670;2024-02-21T01:39:59;26.38;;;10.85;;
25125;SDS011;13106;50.808;5.670;2024-02-21T01:42:25;25.60;;;9.98;;
25125;SDS011;13106;50.808;5.670;2024-02-21T01:44:51;22.52;;;10.35;;
25125;SDS011;13106;50.808;5.670;2024-02-21T01:47:17;25.35;;;10.82;;
25125;SDS011;13106;50.808;5.670;2024-02-21T01:49:43;20.50;;;9.80;;
25125;SDS011;13106;50.808;5.670;2024-02-21T01:52:10;24.05;;;10.48;;
25125;SDS011;13106;50.808;5.670;2024-02-21T01:54:37;24.63;;;10.40;;
25125;SDS011;13106;50.808;5.670;2024-02-21T01:57:03;21.85;;;9.80;;
25125;SDS011;13106;50.808;5.670;2024-02-21T01:59:29;21.48;;;9.98;;
25125;SDS011;13106;50.808;5.670;2024-02-21T02:01:56;21.58;;;9.85;;
25125;SDS011;13106;50.808;5.670;2024-02-21T02:04:22;20.35;;;9.90;;
25125;SDS011;13106;50.808;5.670;2024-02-21T02:06:48;26.42;;;10.13;;
25125;SDS011;13106;50.808;5.670;2024-02-21T02:09:14;19.27;;;10.03;;
25125;SDS011;13106;50.808;5.670;2024-02-21T02:11:40;19.73;;;9.93;;
25125;SDS011;13106;50.808;5.670;2024-02-21T02:14:08;23.55;;;10.27;;
25125;SDS011;13106;50.808;5.670;2024-02-21T02:16:34;21.05;;;9.98;;
25125;SDS011;13106;50.808;5.670;2024-02-21T02:19:00;21.63;;;9.85;;
25125;SDS011;13106;50.808;5.670;2024-02-21T02:23:52;22.10;;;9.35;;
25125;SDS011;13106;50.808;5.670;2024-02-21T02:26:18;21.55;;;9.95;;
25125;SDS011;13106;50.808;5.670;2024-02-21T02:28:44;19.90;;;9.18;;
25125;SDS011;13106;50.808;5.670;2024-02-21T02:31:10;21.83;;;9.20;;
25125;SDS011;13106;50.808;5.670;2024-02-21T02:33:36;20.40;;;9.43;;
25125;SDS011;13106;50.808;5.670;2024-02-21T02:36:02;18.10;;;8.70;;
25125;SDS011;13106;50.808;5.670;2024-02-21T02:38:28;25.55;;;9.35;;
25125;SDS011;13106;50.808;5.670;2024-02-21T02:40:54;23.33;;;9.57;;
25125;SDS011;13106;50.808;5.670;2024-02-21T02:43:20;24.77;;;9.35;;
25125;SDS011;13106;50.808;5.670;2024-02-21T02:45:46;25.40;;;9.35;;
25125;SDS011;13106;50.808;5.670;2024-02-21T02:48:12;22.20;;;9.00;;
25125;SDS011;13106;50.808;5.670;2024-02-21T02:50:38;21.88;;;9.20;;
25125;SDS011;13106;50.808;5.670;2024-02-21T02:53:04;21.83;;;8.77;;
25125;SDS011;13106;50.808;5.670;2024-02-21T02:55:30;24.70;;;9.10;;
25125;SDS011;13106;50.808;5.670;2024-02-21T02:57:56;24.50;;;9.27;;
25125;SDS011;13106;50.808;5.670;2024-02-21T03:00:22;21.77;;;9.07;;
25125;SDS011;13106;50.808;5.670;2024-02-21T03:02:52;20.10;;;9.50;;
25125;SDS011;13106;50.808;5.670;2024-02-21T03:05:19;26.15;;;9.35;;
25125;SDS011;13106;50.808;5.670;2024-02-21T03:07:45;20.42;;;8.60;;
25125;SDS011;13106;50.808;5.670;2024-02-21T03:10:12;21.27;;;9.13;;
25125;SDS011;13106;50.808;5.670;2024-02-21T03:12:38;19.25;;;8.50;;
25125;SDS011;13106;50.808;5.670;2024-02-21T03:15:05;22.98;;;9.48;;
25125;SDS011;13106;50.808;5.670;2024-02-21T03:17:31;19.83;;;8.43;;
25125;SDS011;13106;50.808;5.670;2024-02-21T03:19:59;18.98;;;8.68;;
25125;SDS011;13106;50.808;5.670;2024-02-21T03:22:25;20.35;;;8.90;;
25125;SDS011;13106;50.808;5.670;2024-02-21T03:24:52;22.77;;;9.20;;
25125;SDS011;13106;50.808;5.670;2024-02-21T03:27:18;24.13;;;8.67;;
25125;SDS011;13106;50.808;5.670;2024-02-21T03:29:44;26.00;;;9.07;;
25125;SDS011;13106;50.808;5.670;2024-02-21T03:32:10;22.87;;;9.50;;
25125;SDS011;13106;50.808;5.670;2024-02-21T03:34:36;21.63;;;9.40;;
25125;SDS011;13106;50.808;5.670;2024-02-21T03:37:02;20.77;;;8.93;;
25125;SDS011;13106;50.808;5.670;2024-02-21T03:39:30;18.60;;;8.80;;
25125;SDS011;13106;50.808;5.670;2024-02-21T03:41:57;19.55;;;9.13;;
25125;SDS011;13106;50.808;5.670;2024-02-21T03:44:25;23.95;;;8.82;;
25125;SDS011;13106;50.808;5.670;2024-02-21T03:46:52;22.33;;;9.45;;
25125;SDS011;13106;50.808;5.670;2024-02-21T03:49:18;20.08;;;8.88;;
25125;SDS011;13106;50.808;5.670;2024-02-21T03:51:44;20.80;;;8.57;;
25125;SDS011;13106;50.808;5.670;2024-02-21T03:54:10;18.25;;;9.13;;
25125;SDS011;13106;50.808;5.670;2024-02-21T03:56:39;24.60;;;9.88;;
25125;SDS011;13106;50.808;5.670;2024-02-21T03:59:08;16.52;;;8.75;;
25125;SDS011;13106;50.808;5.670;2024-02-21T04:01:34;23.73;;;9.23;;
25125;SDS011;13106;50.808;5.670;2024-02-21T04:04:01;19.40;;;8.80;;
25125;SDS011;13106;50.808;5.670;2024-02-21T04:06:27;22.35;;;9.00;;
25125;SDS011;13106;50.808;5.670;2024-02-21T04:08:53;19.88;;;8.75;;
25125;SDS011;13106;50.808;5.670;2024-02-21T04:11:19;19.40;;;9.63;;
25125;SDS011;13106;50.808;5.670;2024-02-21T04:13:45;19.17;;;8.05;;
25125;SDS011;13106;50.808;5.670;2024-02-21T04:16:14;23.25;;;8.60;;
25125;SDS011;13106;50.808;5.670;2024-02-21T04:18:40;19.92;;;8.00;;
25125;SDS011;13106;50.808;5.670;2024-02-21T04:21:06;19.80;;;8.43;;
25125;SDS011;13106;50.808;5.670;2024-02-21T04:23:32;21.98;;;8.27;;
25125;SDS011;13106;50.808;5.670;2024-02-21T04:25:58;18.00;;;7.70;;
25125;SDS011;13106;50.808;5.670;2024-02-21T04:28:24;20.55;;;8.75;;
25125;SDS011;13106;50.808;5.670;2024-02-21T04:30:50;16.98;;;7.88;;
25125;SDS011;13106;50.808;5.670;2024-02-21T04:33:16;19.15;;;8.40;;
25125;SDS011;13106;50.808;5.670;2024-02-21T04:35:42;19.17;;;7.68;;
25125;SDS011;13106;50.808;5.670;2024-02-21T04:38:08;21.05;;;8.35;;
25125;SDS011;13106;50.808;5.670;2024-02-21T04:40:35;16.33;;;7.55;;
25125;SDS011;13106;50.808;5.670;2024-02-21T04:43:01;21.23;;;8.20;;
25125;SDS011;13106;50.808;5.670;2024-02-21T04:45:27;20.50;;;8.27;;
25125;SDS011;13106;50.808;5.670;2024-02-21T04:47:53;19.73;;;7.80;;
25125;SDS011;13106;50.808;5.670;2024-02-21T04:50:19;18.55;;;7.78;;
25125;SDS011;13106;50.808;5.670;2024-02-21T04:52:45;23.42;;;8.35;;
25125;SDS011;13106;50.808;5.670;2024-02-21T04:55:11;19.58;;;7.60;;
25125;SDS011;13106;50.808;5.670;2024-02-21T04:57:37;17.08;;;7.55;;
25125;SDS011;13106;50.808;5.670;2024-02-21T05:00:03;18.15;;;7.35;;
25125;SDS011;13106;50.808;5.670;2024-02-21T05:02:29;24.38;;;8.63;;
25125;SDS011;13106;50.808;5.670;2024-02-21T05:04:55;22.13;;;7.95;;
25125;SDS011;13106;50.808;5.670;2024-02-21T05:07:21;19.02;;;7.88;;
25125;SDS011;13106;50.808;5.670;2024-02-21T05:09:47;22.13;;;8.10;;
25125;SDS011;13106;50.808;5.670;2024-02-21T05:12:13;18.25;;;7.90;;
25125;SDS011;13106;50.808;5.670;2024-02-21T05:14:39;18.73;;;7.93;;
25125;SDS011;13106;50.808;5.670;2024-02-21T05:17:05;21.83;;;8.02;;
25125;SDS011;13106;50.808;5.670;2024-02-21T05:19:31;19.25;;;7.68;;
25125;SDS011;13106;50.808;5.670;2024-02-21T05:21:58;19.33;;;7.25;;
25125;SDS011;13106;50.808;5.670;2024-02-21T05:24:24;16.30;;;7.43;;
25125;SDS011;13106;50.808;5.670;2024-02-21T05:26:51;19.45;;;7.50;;
25125;SDS011;13106;50.808;5.670;2024-02-21T05:29:17;15.95;;;6.85;;
25125;SDS011;13106;50.808;5.670;2024-02-21T05:32:01;19.15;;;6.70;;
25125;SDS011;13106;50.808;5.670;2024-02-21T05:34:27;12.65;;;6.63;;
25125;SDS011;13106;50.808;5.670;2024-02-21T05:36:53;17.70;;;6.13;;
25125;SDS011;13106;50.808;5.670;2024-02-21T05:39:19;16.77;;;6.50;;
25125;SDS011;13106;50.808;5.670;2024-02-21T05:41:47;15.18;;;6.80;;
25125;SDS011;13106;50.808;5.670;2024-02-21T05:44:15;17.50;;;6.82;;
25125;SDS011;13106;50.808;5.670;2024-02-21T05:46:41;17.83;;;7.13;;
25125;SDS011;13106;50.808;5.670;2024-02-21T05:49:07;18.45;;;6.72;;
25125;SDS011;13106;50.808;5.670;2024-02-21T05:51:34;17.83;;;7.53;;
25125;SDS011;13106;50.808;5.670;2024-02-21T05:54:00;20.25;;;7.90;;
25125;SDS011;13106;50.808;5.670;2024-02-21T05:56:26;17.20;;;7.50;;
25125;SDS011;13106;50.808;5.670;2024-02-21T05:58:53;17.52;;;7.40;;
25125;SDS011;13106;50.808;5.670;2024-02-21T06:01:19;17.95;;;7.47;;
25125;SDS011;13106;50.808;5.670;2024-02-21T06:03:46;19.90;;;7.65;;
25125;SDS011;13106;50.808;5.670;2024-02-21T06:06:12;17.13;;;7.47;;
25125;SDS011;13106;50.808;5.670;2024-02-21T06:08:40;19.45;;;7.65;;
25125;SDS011;13106;50.808;5.670;2024-02-21T06:11:06;21.52;;;8.20;;
25125;SDS011;13106;50.808;5.670;2024-02-21T06:13:32;18.92;;;7.53;;
25125;SDS011;13106;50.808;5.670;2024-02-21T06:15:58;22.58;;;8.10;;
25125;SDS011;13106;50.808;5.670;2024-02-21T06:18:24;19.60;;;7.65;;
25125;SDS011;13106;50.808;5.670;2024-02-21T06:20:50;19.42;;;7.95;;
25125;SDS011;13106;50.808;5.670;2024-02-21T06:23:17;22.05;;;7.72;;
25125;SDS011;13106;50.808;5.670;2024-02-21T06:25:43;18.98;;;7.43;;
25125;SDS011;13106;50.808;5.670;2024-02-21T06:28:09;20.10;;;7.07;;
25125;SDS011;13106;50.808;5.670;2024-02-21T06:30:35;18.98;;;7.18;;
25125;SDS011;13106;50.808;5.670;2024-02-21T06:33:01;20.65;;;6.70;;
25125;SDS011;13106;50.808;5.670;2024-02-21T06:35:28;19.77;;;6.75;;
25125;SDS011;13106;50.808;5.670;2024-02-21T06:37:54;19.10;;;6.77;;
25125;SDS011;13106;50.808;5.670;2024-02-21T06:40:21;15.85;;;6.35;;
25125;SDS011;13106;50.808;5.670;2024-02-21T06:42:47;19.40;;;6.78;;
25125;SDS011;13106;50.808;5.670;2024-02-21T06:45:14;15.93;;;6.22;;
25125;SDS011;13106;50.808;5.670;2024-02-21T06:47:40;15.33;;;6.27;;
25125;SDS011;13106;50.808;5.670;2024-02-21T06:50:06;17.45;;;5.93;;
25125;SDS011;13106;50.808;5.670;2024-02-21T06:52:32;18.83;;;6.10;;
25125;SDS011;13106;50.808;5.670;2024-02-21T06:54:58;17.27;;;6.10;;
25125;SDS011;13106;50.808;5.670;2024-02-21T06:57:24;16.77;;;5.70;;
25125;SDS011;13106;50.808;5.670;2024-02-21T06:59:50;15.13;;;5.67;;
25125;SDS011;13106;50.808;5.670;2024-02-21T07:02:16;13.77;;;6.17;;
25125;SDS011;13106;50.808;5.670;2024-02-21T07:04:42;18.27;;;9.23;;
25125;SDS011;13106;50.808;5.670;2024-02-21T07:07:08;16.70;;;6.18;;
25125;SDS011;13106;50.808;5.670;2024-02-21T07:09:34;14.77;;;5.90;;
25125;SDS011;13106;50.808;5.670;2024-02-21T07:12:02;15.15;;;5.63;;
25125;SDS011;13106;50.808;5.670;2024-02-21T07:14:29;15.60;;;5.80;;
25125;SDS011;13106;50.808;5.670;2024-02-21T07:16:55;16.63;;;5.78;;
25125;SDS011;13106;50.808;5.670;2024-02-21T07:19:22;15.77;;;5.50;;
25125;SDS011;13106;50.808;5.670;2024-02-21T07:21:48;11.80;;;5.43;;
25125;SDS011;13106;50.808;5.670;2024-02-21T07:24:14;15.32;;;5.78;;
25125;SDS011;13106;50.808;5.670;2024-02-21T07:26:43;15.35;;;5.63;;
25125;SDS011;13106;50.808;5.670;2024-02-21T07:29:09;15.55;;;5.97;;
25125;SDS011;13106;50.808;5.670;2024-02-21T07:31:40;17.00;;;5.72;;
25125;SDS011;13106;50.808;5.670;2024-02-21T07:34:06;15.25;;;5.72;;
25125;SDS011;13106;50.808;5.670;2024-02-21T07:36:32;14.75;;;5.55;;
25125;SDS011;13106;50.808;5.670;2024-02-21T07:38:58;13.88;;;5.65;;
25125;SDS011;13106;50.808;5.670;2024-02-21T07:41:25;11.57;;;5.40;;
25125;SDS011;13106;50.808;5.670;2024-02-21T07:43:51;12.90;;;5.15;;
25125;SDS011;13106;50.808;5.670;2024-02-21T07:46:17;13.10;;;5.28;;
25125;SDS011;13106;50.808;5.670;2024-02-21T07:48:47;17.97;;;5.87;;
25125;SDS011;13106;50.808;5.670;2024-02-21T07:51:13;14.80;;;5.30;;
25125;SDS011;13106;50.808;5.670;2024-02-21T07:53:39;13.27;;;5.20;;
25125;SDS011;13106;50.808;5.670;2024-02-21T07:56:10;15.38;;;5.40;;
25125;SDS011;13106;50.808;5.670;2024-02-21T07:58:36;13.45;;;5.20;;
25125;SDS011;13106;50.808;5.670;2024-02-21T08:01:02;14.05;;;5.13;;
25125;SDS011;13106;50.808;5.670;2024-02-21T08:03:28;13.07;;;5.05;;
25125;SDS011;13106;50.808;5.670;2024-02-21T08:05:54;14.80;;;5.72;;
25125;SDS011;13106;50.808;5.670;2024-02-21T08:08:20;13.32;;;5.55;;
25125;SDS011;13106;50.808;5.670;2024-02-21T08:10:47;13.52;;;5.00;;
25125;SDS011;13106;50.808;5.670;2024-02-21T08:13:13;13.02;;;5.20;;
25125;SDS011;13106;50.808;5.670;2024-02-21T08:15:39;14.43;;;5.50;;
25125;SDS011;13106;50.808;5.670;2024-02-21T08:18:07;13.63;;;5.32;;
25125;SDS011;13106;50.808;5.670;2024-02-21T08:20:33;10.32;;;4.63;;
25125;SDS011;13106;50.808;5.670;2024-02-21T08:22:59;11.20;;;4.78;;
25125;SDS011;13106;50.808;5.670;2024-02-21T08:25:25;10.40;;;4.28;;
25125;SDS011;13106;50.808;5.670;2024-02-21T08:27:51;12.35;;;5.05;;
25125;SDS011;13106;50.808;5.670;2024-02-21T08:30:17;11.00;;;4.68;;
25125;SDS011;13106;50.808;5.670;2024-02-21T08:32:43;12.45;;;4.15;;
25125;SDS011;13106;50.808;5.670;2024-02-21T08:35:09;11.85;;;4.70;;
25125;SDS011;13106;50.808;5.670;2024-02-21T08:37:35;11.35;;;4.88;;
25125;SDS011;13106;50.808;5.670;2024-02-21T08:40:01;12.90;;;4.70;;
25125;SDS011;13106;50.808;5.670;2024-02-21T08:42:33;10.77;;;4.22;;
25125;SDS011;13106;50.808;5.670;2024-02-21T08:44:59;10.15;;;4.15;;
25125;SDS011;13106;50.808;5.670;2024-02-21T08:47:25;10.05;;;4.20;;
25125;SDS011;13106;50.808;5.670;2024-02-21T08:49:51;10.15;;;4.40;;
25125;SDS011;13106;50.808;5.670;2024-02-21T08:52:17;11.07;;;4.40;;
25125;SDS011;13106;50.808;5.670;2024-02-21T08:54:43;12.02;;;4.28;;
25125;SDS011;13106;50.808;5.670;2024-02-21T08:57:09;14.50;;;4.75;;
25125;SDS011;13106;50.808;5.670;2024-02-21T08:59:35;10.88;;;5.32;;
25125;SDS011;13106;50.808;5.670;2024-02-21T09:02:01;10.68;;;4.07;;
25125;SDS011;13106;50.808;5.670;2024-02-21T09:04:28;10.10;;;4.00;;
25125;SDS011;13106;50.808;5.670;2024-02-21T09:06:54;12.35;;;4.38;;
25125;SDS011;13106;50.808;5.670;2024-02-21T09:09:20;9.82;;;4.13;;
25125;SDS011;13106;50.808;5.670;2024-02-21T09:11:46;12.38;;;4.28;;
25125;SDS011;13106;50.808;5.670;2024-02-21T09:14:12;12.02;;;4.60;;
25125;SDS011;13106;50.808;5.670;2024-02-21T09:16:38;16.05;;;4.68;;
25125;SDS011;13106;50.808;5.670;2024-02-21T09:19:04;13.00;;;4.40;;
25125;SDS011;13106;50.808;5.670;2024-02-21T09:21:30;8.43;;;3.80;;
25125;SDS011;13106;50.808;5.670;2024-02-21T09:23:56;10.57;;;7.15;;
25125;SDS011;13106;50.808;5.670;2024-02-21T09:26:22;12.38;;;4.07;;
25125;SDS011;13106;50.808;5.670;2024-02-21T09:28:48;11.23;;;4.10;;
25125;SDS011;13106;50.808;5.670;2024-02-21T09:31:14;9.90;;;3.83;;
25125;SDS011;13106;50.808;5.670;2024-02-21T09:33:40;10.45;;;4.05;;
25125;SDS011;13106;50.808;5.670;2024-02-21T09:36:06;12.82;;;4.28;;
25125;SDS011;13106;50.808;5.670;2024-02-21T09:38:32;12.73;;;4.35;;
25125;SDS011;13106;50.808;5.670;2024-02-21T09:41:23;9.90;;;4.50;;
25125;SDS011;13106;50.808;5.670;2024-02-21T09:43:45;13.07;;;4.13;;
25125;SDS011;13106;50.808;5.670;2024-02-21T09:46:13;11.10;;;4.38;;
25125;SDS011;13106;50.808;5.670;2024-02-21T09:48:48;14.10;;;4.63;;
25125;SDS011;13106;50.808;5.670;2024-02-21T09:51:18;12.02;;;4.30;;
25125;SDS011;13106;50.808;5.670;2024-02-21T09:53:44;11.63;;;4.50;;
25125;SDS011;13106;50.808;5.670;2024-02-21T09:56:12;11.77;;;4.72;;
25125;SDS011;13106;50.808;5.670;2024-02-21T09:58:38;13.52;;;4.90;;
25125;SDS011;13106;50.808;5.670;2024-02-21T10:01:06;14.10;;;4.55;;
25125;SDS011;13106;50.808;5.670;2024-02-21T10:03:33;13.27;;;4.25;;
25125;SDS011;13106;50.808;5.670;2024-02-21T10:06:00;12.95;;;4.95;;
25125;SDS011;13106;50.808;5.670;2024-02-21T10:08:26;11.82;;;4.60;;
25125;SDS011;13106;50.808;5.670;2024-02-21T10:10:52;10.48;;;4.88;;
25125;SDS011;13106;50.808;5.670;2024-02-21T10:16:00;11.95;;;4.70;;
25125;SDS011;13106;50.808;5.670;2024-02-21T10:18:26;11.88;;;4.93;;
25125;SDS011;13106;50.808;5.670;2024-02-21T10:21:01;14.70;;;4.82;;
25125;SDS011;13106;50.808;5.670;2024-02-21T10:23:27;10.90;;;4.80;;
25125;SDS011;13106;50.808;5.670;2024-02-21T10:25:53;13.70;;;4.60;;
25125;SDS011;13106;50.808;5.670;2024-02-21T10:28:19;11.13;;;4.63;;
25125;SDS011;13106;50.808;5.670;2024-02-21T10:30:51;13.93;;;4.97;;
25125;SDS011;13106;50.808;5.670;2024-02-21T10:33:17;12.50;;;6.25;;
25125;SDS011;13106;50.808;5.670;2024-02-21T10:35:49;12.70;;;6.40;;
25125;SDS011;13106;50.808;5.670;2024-02-21T10:38:15;15.07;;;6.72;;
25125;SDS011;13106;50.808;5.670;2024-02-21T10:40:41;13.52;;;6.00;;
25125;SDS011;13106;50.808;5.670;2024-02-21T10:43:09;60.42;;;8.57;;
25125;SDS011;13106;50.808;5.670;2024-02-21T10:45:37;15.95;;;7.18;;
25125;SDS011;13106;50.808;5.670;2024-02-21T10:50:32;12.63;;;5.93;;
25125;SDS011;13106;50.808;5.670;2024-02-21T10:53:09;17.00;;;7.28;;
25125;SDS011;13106;50.808;5.670;2024-02-21T10:55:41;13.67;;;7.40;;
25125;SDS011;13106;50.808;5.670;2024-02-21T10:58:08;11.52;;;6.07;;
25125;SDS011;13106;50.808;5.670;2024-02-21T11:00:36;14.73;;;6.97;;
25125;SDS011;13106;50.808;5.670;2024-02-21T11:03:02;12.23;;;7.20;;
25125;SDS011;13106;50.808;5.670;2024-02-21T11:05:29;13.05;;;6.80;;
25125;SDS011;13106;50.808;5.670;2024-02-21T11:07:55;14.35;;;6.70;;
25125;SDS011;13106;50.808;5.670;2024-02-21T11:10:25;14.15;;;6.90;;
25125;SDS011;13106;50.808;5.670;2024-02-21T11:13:07;14.73;;;7.20;;
25125;SDS011;13106;50.808;5.670;2024-02-21T11:15:34;17.38;;;7.28;;
25125;SDS011;13106;50.808;5.670;2024-02-21T11:18:00;10.82;;;5.15;;
25125;SDS011;13106;50.808;5.670;2024-02-21T11:20:32;11.55;;;6.47;;
25125;SDS011;13106;50.808;5.670;2024-02-21T11:23:01;12.53;;;6.60;;
25125;SDS011;13106;50.808;5.670;2024-02-21T11:25:28;13.90;;;7.07;;
25125;SDS011;13106;50.808;5.670;2024-02-21T11:28:07;12.80;;;7.15;;
25125;SDS011;13106;50.808;5.670;2024-02-21T11:30:36;10.73;;;4.70;;
25125;SDS011;13106;50.808;5.670;2024-02-21T11:33:08;9.87;;;5.33;;
25125;SDS011;13106;50.808;5.670;2024-02-21T11:35:34;13.97;;;9.43;;
25125;SDS011;13106;50.808;5.670;2024-02-21T11:38:13;9.52;;;6.20;;
25125;SDS011;13106;50.808;5.670;2024-02-21T11:40:46;12.68;;;5.93;;
25125;SDS011;13106;50.808;5.670;2024-02-21T11:43:12;12.70;;;6.40;;
25125;SDS011;13106;50.808;5.670;2024-02-21T11:45:38;10.70;;;4.97;;
25125;SDS011;13106;50.808;5.670;2024-02-21T11:48:07;12.63;;;6.32;;
25125;SDS011;13106;50.808;5.670;2024-02-21T11:50:34;14.07;;;4.55;;
25125;SDS011;13106;50.808;5.670;2024-02-21T11:53:04;11.40;;;4.70;;
25125;SDS011;13106;50.808;5.670;2024-02-21T11:55:31;12.00;;;4.80;;
25125;SDS011;13106;50.808;5.670;2024-02-21T11:57:57;10.73;;;4.30;;
25125;SDS011;13106;50.808;5.670;2024-02-21T12:00:23;9.68;;;4.40;;
25125;SDS011;13106;50.808;5.670;2024-02-21T12:02:49;9.98;;;4.75;;
25125;SDS011;13106;50.808;5.670;2024-02-21T12:05:16;9.63;;;4.35;;
25125;SDS011;13106;50.808;5.670;2024-02-21T12:07:42;10.23;;;5.00;;
25125;SDS011;13106;50.808;5.670;2024-02-21T12:10:09;11.35;;;4.80;;
25125;SDS011;13106;50.808;5.670;2024-02-21T12:12:35;10.90;;;4.97;;
25125;SDS011;13106;50.808;5.670;2024-02-21T12:15:03;11.95;;;4.78;;
25125;SDS011;13106;50.808;5.670;2024-02-21T12:17:39;10.93;;;4.80;;
25125;SDS011;13106;50.808;5.670;2024-02-21T12:20:05;9.93;;;4.83;;
25125;SDS011;13106;50.808;5.670;2024-02-21T12:22:36;11.82;;;6.68;;
25125;SDS011;13106;50.808;5.670;2024-02-21T12:25:36;12.95;;;5.03;;
25125;SDS011;13106;50.808;5.670;2024-02-21T12:27:55;8.38;;;4.70;;
25125;SDS011;13106;50.808;5.670;2024-02-21T12:30:21;9.85;;;5.60;;
25125;SDS011;13106;50.808;5.670;2024-02-21T12:32:47;8.80;;;4.90;;
25125;SDS011;13106;50.808;5.670;2024-02-21T12:35:13;11.02;;;5.25;;
25125;SDS011;13106;50.808;5.670;2024-02-21T12:37:39;9.40;;;5.50;;
25125;SDS011;13106;50.808;5.670;2024-02-21T12:40:06;9.48;;;5.70;;
25125;SDS011;13106;50.808;5.670;2024-02-21T12:42:33;11.20;;;5.07;;
25125;SDS011;13106;50.808;5.670;2024-02-21T12:44:59;10.00;;;3.90;;
25125;SDS011;13106;50.808;5.670;2024-02-21T12:47:25;10.20;;;6.77;;
25125;SDS011;13106;50.808;5.670;2024-02-21T12:49:52;10.97;;;7.07;;
25125;SDS011;13106;50.808;5.670;2024-02-21T12:52:18;9.75;;;5.00;;
25125;SDS011;13106;50.808;5.670;2024-02-21T12:54:44;8.05;;;4.70;;
25125;SDS011;13106;50.808;5.670;2024-02-21T12:57:11;10.60;;;3.45;;
25125;SDS011;13106;50.808;5.670;2024-02-21T12:59:37;8.23;;;3.45;;
25125;SDS011;13106;50.808;5.670;2024-02-21T13:02:03;9.20;;;4.00;;
25125;SDS011;13106;50.808;5.670;2024-02-21T13:04:29;7.57;;;3.33;;
25125;SDS011;13106;50.808;5.670;2024-02-21T13:06:55;7.22;;;3.20;;
25125;SDS011;13106;50.808;5.670;2024-02-21T13:09:21;9.80;;;3.60;;
25125;SDS011;13106;50.808;5.670;2024-02-21T13:11:47;8.00;;;3.10;;
25125;SDS011;13106;50.808;5.670;2024-02-21T13:14:13;10.18;;;4.43;;
25125;SDS011;13106;50.808;5.670;2024-02-21T13:16:39;19.48;;;9.20;;
25125;SDS011;13106;50.808;5.670;2024-02-21T13:19:06;71.82;;;34.20;;
25125;SDS011;13106;50.808;5.670;2024-02-21T13:21:33;91.15;;;38.03;;
25125;SDS011;13106;50.808;5.670;2024-02-21T13:23:59;49.38;;;23.92;;
25125;SDS011;13106;50.808;5.670;2024-02-21T13:26:25;29.05;;;14.27;;
25125;SDS011;13106;50.808;5.670;2024-02-21T13:28:51;23.92;;;10.43;;
25125;SDS011;13106;50.808;5.670;2024-02-21T13:31:17;16.30;;;8.77;;
25125;SDS011;13106;50.808;5.670;2024-02-21T13:33:43;12.07;;;6.00;;
25125;SDS011;13106;50.808;5.670;2024-02-21T13:36:09;9.80;;;3.67;;
25125;SDS011;13106;50.808;5.670;2024-02-21T13:38:35;10.48;;;3.95;;
25125;SDS011;13106;50.808;5.670;2024-02-21T13:41:03;9.30;;;3.70;;
25125;SDS011;13106;50.808;5.670;2024-02-21T13:43:29;8.60;;;3.20;;
25125;SDS011;13106;50.808;5.670;2024-02-21T13:45:59;7.80;;;3.10;;
25125;SDS011;13106;50.808;5.670;2024-02-21T13:48:27;9.95;;;3.13;;
25125;SDS011;13106;50.808;5.670;2024-02-21T13:50:55;7.78;;;3.03;;
25125;SDS011;13106;50.808;5.670;2024-02-21T13:53:21;8.45;;;4.07;;
25125;SDS011;13106;50.808;5.670;2024-02-21T13:55:48;7.18;;;5.47;;
25125;SDS011;13106;50.808;5.670;2024-02-21T13:58:14;6.97;;;3.47;;
25125;SDS011;13106;50.808;5.670;2024-02-21T14:00:41;12.52;;;5.45;;
25125;SDS011;13106;50.808;5.670;2024-02-21T14:03:07;8.50;;;4.28;;
25125;SDS011;13106;50.808;5.670;2024-02-21T14:05:33;11.07;;;4.18;;
25125;SDS011;13106;50.808;5.670;2024-02-21T14:07:59;10.70;;;6.55;;
25125;SDS011;13106;50.808;5.670;2024-02-21T14:10:25;12.65;;;7.28;;
25125;SDS011;13106;50.808;5.670;2024-02-21T14:12:51;11.25;;;5.80;;
25125;SDS011;13106;50.808;5.670;2024-02-21T14:15:17;10.25;;;5.78;;
25125;SDS011;13106;50.808;5.670;2024-02-21T14:17:43;14.43;;;8.25;;
25125;SDS011;13106;50.808;5.670;2024-02-21T14:20:09;13.55;;;9.20;;
25125;SDS011;13106;50.808;5.670;2024-02-21T14:22:35;13.45;;;7.70;;
25125;SDS011;13106;50.808;5.670;2024-02-21T14:25:03;9.70;;;5.10;;
25125;SDS011;13106;50.808;5.670;2024-02-21T14:27:32;11.05;;;5.53;;
25125;SDS011;13106;50.808;5.670;2024-02-21T14:29:58;12.40;;;7.60;;
25125;SDS011;13106;50.808;5.670;2024-02-21T14:32:24;11.55;;;6.82;;
25125;SDS011;13106;50.808;5.670;2024-02-21T14:34:50;13.40;;;6.63;;
25125;SDS011;13106;50.808;5.670;2024-02-21T14:37:16;8.75;;;4.90;;